Aviation Digital Data Service (ADDS)

Output produced by TAFs form (0045 UTC 26 July 2017)
found at http://aviationweather.gov/adds/tafs/
 
KTCS 252336Z 2600/2624 28011KT P6SM FEW060 SCT100 BKN200 
     FM260500 33006KT P6SM SCT100 BKN200 
     FM261500 16005KT P6SM SCT200 
     FM262000 21007KT P6SM FEW060 SCT200